createdAt,value
2022-08-12T00:00:00.945Z,20.1
2022-08-12T00:03:00.927Z,20.1
2022-08-12T00:06:05.317Z,19.6
2022-08-12T00:09:00.665Z,19.6
2022-08-12T00:12:00.665Z,19.6
2022-08-12T00:15:00.615Z,19.6
2022-08-12T00:18:00.627Z,19.6
2022-08-12T00:21:00.623Z,19.6
2022-08-12T00:24:00.620Z,19.6
2022-08-12T00:27:00.639Z,19.6
2022-08-12T00:30:00.669Z,19
2022-08-12T00:33:00.867Z,19
2022-08-12T00:36:00.628Z,19
2022-08-12T00:39:00.631Z,18.9
2022-08-12T00:42:00.591Z,18.9
2022-08-12T00:45:00.614Z,18.9
2022-08-12T00:48:00.647Z,18.9
2022-08-12T00:51:00.679Z,18.9
2022-08-12T00:54:00.696Z,18.5
2022-08-12T00:57:00.686Z,18.5
2022-08-12T01:00:00.639Z,18.5
2022-08-12T01:03:00.603Z,18.5
2022-08-12T01:06:00.646Z,18.5
2022-08-12T01:09:00.661Z,18.5
2022-08-12T01:12:00.650Z,18.5
2022-08-12T01:15:00.607Z,18.5
2022-08-12T01:18:00.627Z,18.5
2022-08-12T01:21:00.634Z,18
2022-08-12T01:24:00.644Z,18
2022-08-12T01:27:00.706Z,18
2022-08-12T01:30:00.777Z,17.8
2022-08-12T01:33:00.651Z,17.8
2022-08-12T01:36:08.965Z,17.8
2022-08-12T01:39:00.683Z,17.8
2022-08-12T01:42:00.649Z,17.8
2022-08-12T01:45:00.663Z,17.5
2022-08-12T01:48:00.617Z,17.5
2022-08-12T01:51:01.563Z,17.5
2022-08-12T01:54:00.687Z,17.5
2022-08-12T01:57:00.693Z,17.5
2022-08-12T02:00:00.678Z,17.5
2022-08-12T02:03:00.580Z,16.9
2022-08-12T02:06:00.706Z,16.9
2022-08-12T02:09:00.678Z,16.9
2022-08-12T02:12:00.692Z,16.9
2022-08-12T02:15:00.599Z,16.9
2022-08-12T02:18:00.704Z,16.9
2022-08-12T02:21:01.272Z,16.9
2022-08-12T02:24:00.629Z,16.9
2022-08-12T02:27:00.656Z,16.5
2022-08-12T02:30:00.911Z,16.4
2022-08-12T02:33:00.673Z,16.4
2022-08-12T02:36:00.636Z,16.4
2022-08-12T02:39:00.616Z,16.4
2022-08-12T02:42:00.776Z,16.4
2022-08-12T02:45:00.635Z,16.4
2022-08-12T02:48:01.530Z,16.4
2022-08-12T02:51:00.600Z,16.4
2022-08-12T02:54:06.071Z,16.4
2022-08-12T02:57:00.639Z,16.4
2022-08-12T03:00:00.647Z,16.4
2022-08-12T03:03:00.632Z,16.4
2022-08-12T03:06:00.965Z,16.4
2022-08-12T03:09:00.831Z,15.9
2022-08-12T03:12:00.623Z,15.9
2022-08-12T03:15:00.690Z,15.9
2022-08-12T03:18:28.266Z,15.8
2022-08-12T03:21:00.669Z,15.8
2022-08-12T03:24:00.631Z,15.8
2022-08-12T03:27:00.810Z,15.8
2022-08-12T03:30:00.733Z,15.8
2022-08-12T03:33:00.667Z,15.8
2022-08-12T03:36:00.608Z,15.8
2022-08-12T03:39:00.699Z,15.4
2022-08-12T03:42:00.621Z,15.4
2022-08-12T03:45:00.643Z,15.4
2022-08-12T03:48:00.667Z,15.4
2022-08-12T03:51:00.600Z,15.4
2022-08-12T03:54:00.624Z,15.4
2022-08-12T03:57:00.674Z,15.4
2022-08-12T04:00:00.807Z,15.4
2022-08-12T04:03:00.773Z,15.4
2022-08-12T04:06:00.645Z,15.4
2022-08-12T04:09:00.661Z,15.4
2022-08-12T04:12:00.746Z,15.4
2022-08-12T04:15:00.625Z,15
2022-08-12T04:18:08.064Z,15
2022-08-12T04:21:00.623Z,15
2022-08-12T04:24:00.634Z,15
2022-08-12T04:27:00.662Z,15
2022-08-12T04:30:33.686Z,15
2022-08-12T04:33:00.648Z,15
2022-08-12T04:36:00.657Z,15
2022-08-12T04:39:00.696Z,15
2022-08-12T04:42:00.643Z,15
2022-08-12T04:45:00.837Z,15
2022-08-12T04:48:00.663Z,15
2022-08-12T04:51:00.651Z,15
2022-08-12T04:54:00.735Z,15
2022-08-12T04:57:05.113Z,15
2022-08-12T05:00:00.688Z,15
2022-08-12T05:03:00.815Z,15
2022-08-12T05:06:00.664Z,15
2022-08-12T05:09:00.757Z,15
2022-08-12T05:12:00.722Z,15
2022-08-12T05:15:00.688Z,15
2022-08-12T05:18:19.297Z,15
2022-08-12T05:21:00.677Z,15
2022-08-12T05:24:00.707Z,15
2022-08-12T05:27:00.667Z,15
2022-08-12T05:30:09.096Z,15
2022-08-12T05:33:00.751Z,15
2022-08-12T05:36:00.690Z,15.5
2022-08-12T05:39:00.712Z,15.5
2022-08-12T05:42:00.718Z,15.5
2022-08-12T05:45:00.646Z,15.5
2022-08-12T05:48:00.686Z,15.5
2022-08-12T05:51:00.723Z,15.5
2022-08-12T05:54:00.675Z,16
2022-08-12T05:57:00.694Z,16
2022-08-12T06:00:00.772Z,16.2
2022-08-12T06:03:00.852Z,16.2
2022-08-12T06:06:00.645Z,16.2
2022-08-12T06:09:00.662Z,16.6
2022-08-12T06:12:06.630Z,16.6
2022-08-12T06:15:00.664Z,16.6
2022-08-12T06:18:00.649Z,17.1
2022-08-12T06:21:02.455Z,17.1
2022-08-12T06:24:00.678Z,17.1
2022-08-12T06:27:00.671Z,17.1
2022-08-12T06:30:12.636Z,17.6
2022-08-12T06:33:21.383Z,17.6
2022-08-12T06:36:00.669Z,17.6
2022-08-12T06:39:00.678Z,17.6
2022-08-12T06:42:31.210Z,18.1
2022-08-12T06:45:00.707Z,18.1
2022-08-12T06:48:00.688Z,18.1
2022-08-12T06:51:00.657Z,18.6
2022-08-12T06:54:00.682Z,18.8
2022-08-12T06:57:57.536Z,18.8
2022-08-12T07:00:00.739Z,19.2
2022-08-12T07:03:00.674Z,19.2
2022-08-12T07:06:00.695Z,19.2
2022-08-12T07:09:00.702Z,19.2
2022-08-12T07:12:00.665Z,19.7
2022-08-12T07:15:00.663Z,19.7
2022-08-12T07:18:00.669Z,19.7
2022-08-12T07:21:00.646Z,20.2
2022-08-12T07:24:00.661Z,20.2
2022-08-12T07:27:00.679Z,20.7
2022-08-12T07:30:05.455Z,20.7
2022-08-12T07:33:01.988Z,20.7
2022-08-12T07:36:00.672Z,21.3
2022-08-12T07:39:00.632Z,21.3
2022-08-12T07:42:00.723Z,21.3
2022-08-12T07:45:00.761Z,21.8
2022-08-12T07:48:00.671Z,21.8
2022-08-12T07:51:00.635Z,21.8
2022-08-12T07:54:03.339Z,22.4
2022-08-12T07:57:00.651Z,22.4
2022-08-12T08:00:00.699Z,22.4
2022-08-12T08:03:00.704Z,22.8
2022-08-12T08:06:00.728Z,22.8
2022-08-12T08:09:00.700Z,22.8
2022-08-12T08:12:00.674Z,23.3
2022-08-12T08:15:00.704Z,23.3
2022-08-12T08:18:00.700Z,23.3
2022-08-12T08:21:00.656Z,23.3
2022-08-12T08:24:05.515Z,23.8
2022-08-12T08:27:00.657Z,23.8
2022-08-12T08:30:00.671Z,23.8
2022-08-12T08:33:00.652Z,24.4
2022-08-12T08:36:00.791Z,24.4
2022-08-12T08:39:00.705Z,24.4
2022-08-12T08:42:19.967Z,24.4
2022-08-12T08:45:00.681Z,24.9
2022-08-12T08:48:00.738Z,25
2022-08-12T08:51:05.225Z,25
2022-08-12T08:54:00.728Z,25
2022-08-12T08:57:00.669Z,25.4
2022-08-12T09:00:00.744Z,25.4
2022-08-12T09:03:00.635Z,25.4
2022-08-12T09:09:00.704Z,25.4
2022-08-12T09:12:12.329Z,25.9
2022-08-12T09:15:00.662Z,25.9
2022-08-12T09:18:00.660Z,25.9
2022-08-12T09:21:02.795Z,25.9
2022-08-12T09:24:07.687Z,25.9
2022-08-12T09:27:00.611Z,26.4
2022-08-12T09:30:14.184Z,26.4
2022-08-12T09:33:15.358Z,26.4
2022-08-12T09:36:05.390Z,26.4
2022-08-12T09:39:01.373Z,26.4
2022-08-12T09:42:40.886Z,26.4
2022-08-12T09:45:22.994Z,26.4
2022-08-12T09:48:00.758Z,26.9
2022-08-12T09:51:01.872Z,26.9
2022-08-12T09:54:31.868Z,26.9
2022-08-12T09:58:08.417Z,26.9
2022-08-12T10:00:19.305Z,26.9
2022-08-12T10:03:02.474Z,26.9
2022-08-12T10:06:32.119Z,26.9
2022-08-12T10:09:00.704Z,26.9
2022-08-12T10:12:12.940Z,26.9
2022-08-12T10:15:00.892Z,26.9
2022-08-12T10:18:07.950Z,27.4
2022-08-12T10:21:00.668Z,27.4
2022-08-12T10:24:00.668Z,27.4
2022-08-12T10:27:00.684Z,27.4
2022-08-12T10:30:42.285Z,27.4
2022-08-12T10:33:03.012Z,27.4
2022-08-12T10:36:00.689Z,27.4
2022-08-12T10:39:00.715Z,27.6
2022-08-12T10:42:00.892Z,27.6
2022-08-12T10:45:00.755Z,27.6
2022-08-12T10:48:26.726Z,27.6
2022-08-12T10:51:18.151Z,27.6
2022-08-12T10:54:02.418Z,27.6
2022-08-12T10:57:00.658Z,27.6
2022-08-12T11:00:45.445Z,27.7
2022-08-12T11:09:01.607Z,27.7
2022-08-12T11:12:56.871Z,27.7
2022-08-12T11:15:00.739Z,27.7
2022-08-12T11:18:03.533Z,27.7
2022-08-12T11:21:00.676Z,27.7
2022-08-12T11:24:02.033Z,27.7
2022-08-12T11:27:00.903Z,27.7
2022-08-12T11:30:07.205Z,27.7
2022-08-12T11:33:00.792Z,27.7
2022-08-12T11:36:00.708Z,27.7
2022-08-12T11:39:05.291Z,27.7
2022-08-12T11:42:00.715Z,27.7
2022-08-12T11:45:00.670Z,27.7
2022-08-12T11:48:00.719Z,27.9
2022-08-12T11:51:00.623Z,27.9
2022-08-12T11:54:01.680Z,27.9
2022-08-12T11:58:03.907Z,27.9
2022-08-12T12:03:00.787Z,27.9
2022-08-12T12:06:00.830Z,27.9
2022-08-12T12:09:00.843Z,27.9
2022-08-12T12:12:00.613Z,27.9
2022-08-12T12:15:07.071Z,27.9
2022-08-12T12:18:00.636Z,27.9
2022-08-12T12:21:00.648Z,28.1
2022-08-12T12:24:01.028Z,28.1
2022-08-12T12:27:01.676Z,28.1
2022-08-12T12:30:29.494Z,28.1
2022-08-12T12:33:00.735Z,28.1
2022-08-12T12:36:23.076Z,28.1
2022-08-12T12:39:00.789Z,28.1
2022-08-12T12:42:55.750Z,27.9
2022-08-12T12:45:00.680Z,27.9
2022-08-12T12:48:00.760Z,27.9
2022-08-12T12:51:00.647Z,27.9
2022-08-12T12:54:09.814Z,27.9
2022-08-12T12:57:00.645Z,27.9
2022-08-12T13:00:00.844Z,27.9
2022-08-12T13:03:00.791Z,28
2022-08-12T13:06:00.682Z,28
2022-08-12T13:09:03.602Z,28
2022-08-12T13:12:00.674Z,28
2022-08-12T13:15:00.695Z,28
2022-08-12T13:18:04.937Z,28
2022-08-12T13:21:00.689Z,28
2022-08-12T13:24:00.658Z,28
2022-08-12T13:27:00.698Z,28
2022-08-12T13:30:06.452Z,28
2022-08-12T13:33:00.801Z,28
2022-08-12T13:36:07.803Z,28.2
2022-08-12T13:39:00.715Z,28.2
2022-08-12T13:42:00.683Z,28.2
2022-08-12T13:45:03.315Z,28.2
2022-08-12T13:48:02.089Z,28.2
2022-08-12T13:51:00.688Z,28.2
2022-08-12T13:54:07.151Z,28.2
2022-08-12T13:57:00.805Z,28.2
2022-08-12T14:00:01.967Z,28.2
2022-08-12T14:03:00.751Z,28.2
2022-08-12T14:06:00.747Z,28.2
2022-08-12T14:09:00.650Z,28.2
2022-08-12T14:12:00.760Z,28.1
2022-08-12T14:15:00.895Z,28.1
2022-08-12T14:18:00.751Z,28.1
2022-08-12T14:21:00.714Z,28.1
2022-08-12T14:24:08.172Z,28.1
2022-08-12T14:27:02.704Z,28.1
2022-08-12T14:30:17.349Z,28.2
2022-08-12T14:33:00.682Z,28.2
2022-08-12T14:36:00.754Z,28.2
2022-08-12T14:39:00.736Z,28.2
2022-08-12T14:42:00.713Z,28.2
2022-08-12T14:45:02.129Z,28.2
2022-08-12T14:48:00.643Z,28.2
2022-08-12T14:58:00.590Z,28.2
2022-08-12T15:00:00.725Z,28.2
2022-08-12T15:03:00.655Z,28.2
2022-08-12T15:06:05.676Z,28.2
2022-08-12T15:09:00.660Z,28.2
2022-08-12T15:12:04.336Z,28.2
2022-08-12T15:15:00.699Z,28.2
2022-08-12T15:18:02.504Z,28.2
2022-08-12T15:21:06.265Z,28.2
2022-08-12T15:24:00.677Z,28.2
2022-08-12T15:27:00.713Z,28.2
2022-08-12T15:30:00.947Z,28.2
2022-08-12T15:33:00.715Z,28.2
2022-08-12T15:36:00.796Z,28.2
2022-08-12T15:39:00.831Z,28.2
2022-08-12T15:42:02.268Z,28.2
2022-08-12T15:45:00.723Z,28.2
2022-08-12T15:48:16.574Z,28.2
2022-08-12T15:51:00.659Z,28.2
2022-08-12T15:54:00.849Z,28.2
2022-08-12T15:57:00.696Z,28.2
2022-08-12T16:00:09.404Z,28.2
2022-08-12T16:03:00.767Z,28.2
2022-08-12T16:06:19.561Z,28.2
2022-08-12T16:09:00.713Z,28.2
2022-08-12T16:12:00.761Z,28.2
2022-08-12T16:15:00.758Z,28.2
2022-08-12T16:18:19.396Z,28.2
2022-08-12T16:21:00.677Z,28.1
2022-08-12T16:24:00.748Z,28.1
2022-08-12T16:27:00.738Z,28.1
2022-08-12T16:30:00.855Z,28
2022-08-12T16:33:00.659Z,28
2022-08-12T16:36:00.681Z,28
2022-08-12T16:39:02.150Z,28
2022-08-12T16:42:00.743Z,28
2022-08-12T16:45:02.588Z,28
2022-08-12T16:48:00.960Z,28
2022-08-12T16:51:00.725Z,28
2022-08-12T16:54:00.712Z,28
2022-08-12T16:57:00.694Z,28
2022-08-12T17:00:00.712Z,28
2022-08-12T17:03:00.684Z,28
2022-08-12T17:06:00.768Z,28
2022-08-12T17:09:00.696Z,28
2022-08-12T17:12:00.695Z,28
2022-08-12T17:15:01.078Z,27.9
2022-08-12T17:18:44.363Z,27.9
2022-08-12T17:21:00.658Z,27.9
2022-08-12T17:24:00.711Z,27.9
2022-08-12T17:27:00.678Z,27.9
2022-08-12T17:30:05.381Z,27.9
2022-08-12T17:33:00.661Z,27.9
2022-08-12T17:36:00.632Z,27.9
2022-08-12T17:39:00.725Z,27.9
2022-08-12T17:42:00.658Z,27.5
2022-08-12T17:45:00.660Z,27.5
2022-08-12T17:48:05.816Z,27.5
2022-08-12T17:51:00.671Z,27.5
2022-08-12T17:54:12.772Z,27.5
2022-08-12T17:57:00.781Z,27.5
2022-08-12T18:00:00.693Z,27.5
2022-08-12T18:03:00.693Z,27.5
2022-08-12T18:06:06.297Z,27.5
2022-08-12T18:09:09.807Z,27.3
2022-08-12T18:12:08.035Z,27.3
2022-08-12T18:15:00.795Z,27.3
2022-08-12T18:18:00.697Z,27.3
2022-08-12T18:21:00.693Z,27.3
2022-08-12T18:24:00.693Z,27
2022-08-12T18:27:00.701Z,27
2022-08-12T18:30:04.877Z,27
2022-08-12T18:33:04.809Z,27
2022-08-12T18:36:00.724Z,27
2022-08-12T18:39:00.739Z,27
2022-08-12T18:42:00.651Z,27
2022-08-12T18:45:00.629Z,27
2022-08-12T18:48:00.757Z,27
2022-08-12T18:51:00.669Z,27
2022-08-12T18:54:07.992Z,26.6
2022-08-12T18:57:00.735Z,26.6
2022-08-12T19:00:07.483Z,26.6
2022-08-12T19:03:00.734Z,26.6
2022-08-12T19:06:00.651Z,26.6
2022-08-12T19:09:00.714Z,26.6
2022-08-12T19:12:00.682Z,26.1
2022-08-12T19:15:04.936Z,26.1
2022-08-12T19:18:03.505Z,26.1
2022-08-12T19:21:15.886Z,26.1
2022-08-12T19:24:00.626Z,26.1
2022-08-12T19:27:00.694Z,26.1
2022-08-12T19:30:08.936Z,25.6
2022-08-12T19:33:00.641Z,25.6
2022-08-12T19:36:25.554Z,25.6
2022-08-12T19:39:00.663Z,25.6
2022-08-12T19:42:01.963Z,25.6
2022-08-12T19:45:00.627Z,25.6
2022-08-12T19:48:00.709Z,25.1
2022-08-12T19:51:22.485Z,25.1
2022-08-12T19:54:00.671Z,25.1
2022-08-12T19:57:00.607Z,24.8
2022-08-12T20:00:04.905Z,24.8
2022-08-12T20:03:00.908Z,24.6
2022-08-12T20:06:08.628Z,24.6
2022-08-12T20:09:00.669Z,24.6
2022-08-12T20:12:17.958Z,24.6
2022-08-12T20:15:00.613Z,24.6
2022-08-12T20:18:00.783Z,24.1
2022-08-12T20:21:00.667Z,24.1
2022-08-12T20:24:01.659Z,24.1
2022-08-12T20:27:00.689Z,24.1
2022-08-12T20:30:00.723Z,24.1
2022-08-12T20:33:00.930Z,24.1
2022-08-12T20:36:14.513Z,23.6
2022-08-12T20:39:00.680Z,23.6
2022-08-12T20:42:00.737Z,23.6
2022-08-12T20:45:00.873Z,23.6
2022-08-12T20:48:04.826Z,23.2
2022-08-12T20:51:04.962Z,23.2
2022-08-12T20:54:00.626Z,23.1
2022-08-12T20:57:01.191Z,23.1
2022-08-12T21:00:00.662Z,23.1
2022-08-12T21:03:00.661Z,23.1
2022-08-12T21:06:13.966Z,23.1
2022-08-12T21:09:00.638Z,23.1
2022-08-12T21:12:00.667Z,22.5
2022-08-12T21:15:24.520Z,22.5
2022-08-12T21:18:29.362Z,22.5
2022-08-12T21:21:00.630Z,22.5
2022-08-12T21:24:00.616Z,22.5
2022-08-12T21:27:03.673Z,22.5
2022-08-12T21:30:00.706Z,22.5
2022-08-12T21:33:00.691Z,22.5
2022-08-12T21:36:00.669Z,22
2022-08-12T21:39:00.677Z,22
2022-08-12T21:42:02.609Z,22
2022-08-12T21:45:58.108Z,21.8
2022-08-12T21:48:00.663Z,21.8
2022-08-12T21:51:00.627Z,21.5
2022-08-12T21:54:09.909Z,21.5
2022-08-12T21:57:00.663Z,21.5
2022-08-12T22:00:01.320Z,21.5
2022-08-12T22:03:00.631Z,21.5
2022-08-12T22:06:00.622Z,21
2022-08-12T22:09:00.670Z,21
2022-08-12T22:12:00.668Z,21
2022-08-12T22:15:00.745Z,21
2022-08-12T22:18:00.690Z,21
2022-08-12T22:21:00.689Z,21
2022-08-12T22:24:05.887Z,20.5
2022-08-12T22:27:32.101Z,20.5
2022-08-12T22:30:01.242Z,20.5
2022-08-12T22:33:00.638Z,20.5
2022-08-12T22:36:00.724Z,20.5
2022-08-12T22:39:00.738Z,20.5
2022-08-12T22:42:00.697Z,20.5
2022-08-12T22:45:00.673Z,20
2022-08-12T22:48:00.663Z,20
2022-08-12T22:51:00.663Z,20
2022-08-12T22:54:00.748Z,20
2022-08-12T22:57:00.701Z,20
2022-08-12T23:00:00.724Z,20
2022-08-12T23:03:03.867Z,20
2022-08-12T23:06:11.159Z,20
2022-08-12T23:09:00.719Z,20
2022-08-12T23:12:00.745Z,19.4
2022-08-12T23:15:00.669Z,19.4
2022-08-12T23:18:00.665Z,19.4
2022-08-12T23:21:00.677Z,19.4
2022-08-12T23:24:11.004Z,19.4
2022-08-12T23:27:00.760Z,19.4
2022-08-12T23:30:24.595Z,19.4
2022-08-12T23:33:01.088Z,19.4
2022-08-12T23:36:03.880Z,19.4
2022-08-12T23:39:02.157Z,19.4
2022-08-12T23:42:18.618Z,18.8
2022-08-12T23:45:00.619Z,18.8
2022-08-12T23:48:00.865Z,18.8
2022-08-12T23:51:00.691Z,18.8
2022-08-12T23:54:00.836Z,18.4
2022-08-12T23:57:10.763Z,18.4
